createdAt,value
2017-10-15T00:00:34.137Z,11.49
2017-10-15T00:03:01.820Z,11.44
2017-10-15T00:05:29.487Z,11.45
2017-10-15T00:07:57.120Z,11.46
2017-10-15T00:10:24.796Z,11.52
2017-10-15T00:12:52.459Z,11.49
2017-10-15T00:15:20.076Z,11.47
2017-10-15T00:17:47.687Z,11.51
2017-10-15T00:20:15.359Z,11.53
2017-10-15T00:22:42.978Z,11.49
2017-10-15T00:25:10.644Z,11.49
2017-10-15T00:27:38.311Z,11.43
2017-10-15T00:30:05.927Z,11.34
2017-10-15T00:32:33.611Z,11.30
2017-10-15T00:35:01.293Z,11.24
2017-10-15T00:37:28.972Z,11.13
2017-10-15T00:39:56.587Z,10.99
2017-10-15T00:42:24.251Z,10.89
2017-10-15T00:44:51.880Z,10.81
2017-10-15T00:47:19.547Z,10.70
2017-10-15T00:49:47.216Z,10.57
2017-10-15T00:52:14.892Z,10.48
2017-10-15T00:54:42.509Z,10.33
2017-10-15T00:57:10.194Z,10.29
2017-10-15T00:59:37.836Z,10.22
2017-10-15T01:02:05.456Z,10.16
2017-10-15T01:04:33.115Z,10.13
2017-10-15T01:07:00.736Z,10.05
2017-10-15T01:09:28.418Z,10.03
2017-10-15T01:11:56.144Z,9.96
2017-10-15T01:14:23.750Z,9.91
2017-10-15T01:16:51.355Z,9.89
2017-10-15T01:19:19.024Z,9.88
2017-10-15T01:21:46.655Z,9.84
2017-10-15T01:24:14.335Z,9.82
2017-10-15T01:26:42.010Z,9.80
2017-10-15T01:29:09.756Z,9.87
2017-10-15T01:31:37.438Z,9.88
2017-10-15T01:34:05.199Z,9.89
2017-10-15T01:36:32.844Z,9.90
2017-10-15T01:39:00.531Z,9.87
2017-10-15T01:41:28.203Z,9.88
2017-10-15T01:43:55.827Z,9.92
2017-10-15T01:46:23.508Z,9.93
2017-10-15T01:48:51.176Z,9.93
2017-10-15T01:51:18.868Z,10.00
2017-10-15T01:53:46.492Z,10.05
2017-10-15T01:56:14.219Z,10.08
2017-10-15T01:58:41.850Z,10.13
2017-10-15T02:01:09.458Z,10.18
2017-10-15T02:03:37.126Z,10.20
2017-10-15T02:06:04.761Z,10.21
2017-10-15T02:08:32.379Z,10.19
2017-10-15T02:11:00.099Z,10.22
2017-10-15T02:13:27.716Z,10.19
2017-10-15T02:15:55.412Z,10.21
2017-10-15T02:18:23.079Z,10.26
2017-10-15T02:20:50.695Z,10.27
2017-10-15T02:23:18.318Z,10.28
2017-10-15T02:25:45.987Z,10.33
2017-10-15T02:28:13.602Z,10.34
2017-10-15T02:30:41.217Z,10.36
2017-10-15T02:33:08.887Z,10.36
2017-10-15T02:35:36.507Z,10.39
2017-10-15T02:38:04.216Z,10.42
2017-10-15T02:40:31.895Z,10.37
2017-10-15T02:42:59.567Z,10.37
2017-10-15T02:45:27.253Z,10.37
2017-10-15T02:47:54.940Z,10.37
2017-10-15T02:50:22.553Z,10.33
2017-10-15T02:52:50.250Z,10.32
2017-10-15T02:55:17.915Z,10.33
2017-10-15T02:57:45.527Z,10.33
2017-10-15T03:00:13.126Z,10.37
2017-10-15T03:02:40.783Z,10.39
2017-10-15T03:05:08.419Z,10.43
2017-10-15T03:07:36.052Z,10.42
2017-10-15T03:10:03.735Z,10.43
2017-10-15T03:12:31.355Z,10.40
2017-10-15T03:14:58.971Z,10.45
2017-10-15T03:17:26.636Z,10.48
2017-10-15T03:19:54.311Z,10.46
2017-10-15T03:22:21.926Z,10.46
2017-10-15T03:24:49.635Z,10.49
2017-10-15T03:27:17.251Z,10.46
2017-10-15T03:29:44.925Z,10.45
2017-10-15T03:32:12.591Z,10.49
2017-10-15T03:34:40.207Z,10.51
2017-10-15T03:37:07.819Z,10.55
2017-10-15T03:39:35.482Z,10.54
2017-10-15T03:42:03.164Z,10.58
2017-10-15T03:44:30.845Z,10.67
2017-10-15T03:46:58.519Z,10.70
2017-10-15T03:49:26.188Z,10.70
2017-10-15T03:51:53.817Z,10.70
2017-10-15T03:54:21.555Z,10.71
2017-10-15T03:56:49.172Z,10.72
2017-10-15T03:59:16.804Z,10.69
2017-10-15T04:01:44.475Z,10.66
2017-10-15T04:04:12.083Z,10.62
2017-10-15T04:06:39.692Z,10.62
2017-10-15T04:09:07.368Z,10.59
2017-10-15T04:11:34.991Z,10.61
2017-10-15T04:14:02.660Z,10.66
2017-10-15T04:16:30.391Z,10.68
2017-10-15T04:18:58.071Z,10.62
2017-10-15T04:21:25.704Z,10.64
2017-10-15T04:23:53.451Z,10.63
2017-10-15T04:26:21.126Z,10.60
2017-10-15T04:28:48.795Z,10.46
2017-10-15T04:31:16.479Z,10.35
2017-10-15T04:33:44.144Z,10.20
2017-10-15T04:36:11.831Z,10.10
2017-10-15T04:38:39.517Z,10.00
2017-10-15T04:41:07.188Z,9.98
2017-10-15T04:43:35.343Z,9.93
2017-10-15T04:46:03.003Z,9.93
2017-10-15T04:48:30.679Z,9.95
2017-10-15T04:50:58.294Z,9.98
2017-10-15T04:53:25.968Z,10.09
2017-10-15T04:55:53.587Z,10.22
2017-10-15T04:58:21.212Z,10.37
2017-10-15T05:00:48.879Z,10.53
2017-10-15T05:03:16.560Z,10.71
2017-10-15T05:05:44.241Z,10.91
2017-10-15T05:08:11.905Z,11.08
2017-10-15T05:10:39.518Z,11.30
2017-10-15T05:13:07.199Z,11.49
2017-10-15T05:15:34.960Z,11.64
2017-10-15T05:18:02.648Z,11.73
2017-10-15T05:20:30.261Z,11.87
2017-10-15T05:22:57.925Z,12.03
2017-10-15T05:25:25.543Z,12.24
2017-10-15T05:27:53.151Z,12.45
2017-10-15T05:30:20.831Z,12.55
2017-10-15T05:32:48.517Z,12.68
2017-10-15T05:35:16.146Z,12.89
2017-10-15T05:37:43.819Z,13.06
2017-10-15T05:40:11.427Z,13.28
2017-10-15T05:42:39.050Z,13.52
2017-10-15T05:45:06.734Z,13.65
2017-10-15T05:47:34.368Z,13.76
2017-10-15T05:50:01.999Z,13.92
2017-10-15T05:52:29.684Z,14.11
2017-10-15T05:54:57.307Z,14.26
2017-10-15T05:57:24.918Z,14.47
2017-10-15T05:59:52.588Z,14.61
2017-10-15T06:02:20.272Z,14.86
2017-10-15T06:04:47.946Z,15.15
2017-10-15T06:07:15.631Z,15.20
2017-10-15T06:09:43.372Z,15.27
2017-10-15T06:12:11.007Z,15.37
2017-10-15T06:14:38.749Z,15.49
2017-10-15T06:17:06.434Z,15.62
2017-10-15T06:19:34.205Z,15.77
2017-10-15T06:22:01.876Z,15.80
2017-10-15T06:24:29.499Z,15.89
2017-10-15T06:26:57.119Z,15.99
2017-10-15T06:29:24.787Z,16.04
2017-10-15T06:31:52.467Z,16.10
2017-10-15T06:34:20.080Z,16.20
2017-10-15T06:36:47.744Z,16.31
2017-10-15T06:39:15.356Z,16.43
2017-10-15T06:41:42.963Z,16.45
2017-10-15T06:44:10.627Z,16.60
2017-10-15T06:46:38.254Z,16.66
2017-10-15T06:49:05.884Z,16.76
2017-10-15T06:51:33.624Z,16.93
2017-10-15T06:54:01.299Z,17.07
2017-10-15T06:56:28.911Z,17.28
2017-10-15T06:58:56.571Z,17.33
2017-10-15T07:01:24.195Z,17.35
2017-10-15T07:03:51.865Z,17.39
2017-10-15T07:06:19.529Z,17.42
2017-10-15T07:08:47.158Z,17.44
2017-10-15T07:11:14.840Z,17.61
2017-10-15T07:13:42.512Z,17.57
2017-10-15T07:16:10.215Z,17.43
2017-10-15T07:18:37.834Z,17.32
2017-10-15T07:21:05.497Z,17.28
2017-10-15T07:23:33.122Z,17.27
2017-10-15T07:26:00.792Z,17.39
2017-10-15T07:28:28.507Z,17.50
2017-10-15T07:30:56.179Z,17.42
2017-10-15T07:33:23.844Z,17.42
2017-10-15T07:35:51.527Z,17.45
2017-10-15T07:38:19.144Z,17.40
2017-10-15T07:40:46.769Z,17.51
2017-10-15T07:43:14.497Z,17.60
2017-10-15T07:45:42.115Z,17.74
2017-10-15T07:48:09.804Z,17.79
2017-10-15T07:50:37.466Z,17.89
2017-10-15T07:53:05.140Z,18.01
2017-10-15T07:55:32.755Z,18.17
2017-10-15T07:58:00.484Z,18.15
2017-10-15T08:00:28.123Z,18.19
2017-10-15T08:02:55.740Z,18.22
2017-10-15T08:05:23.471Z,18.35
2017-10-15T08:07:51.092Z,18.50
2017-10-15T08:10:18.732Z,18.59
2017-10-15T08:12:46.451Z,18.75
2017-10-15T08:15:14.067Z,18.92
2017-10-15T08:17:41.682Z,19.03
2017-10-15T08:20:09.355Z,19.12
2017-10-15T08:22:37.035Z,19.20
2017-10-15T08:25:04.651Z,19.30
2017-10-15T08:27:32.320Z,19.45
2017-10-15T08:29:59.928Z,19.56
2017-10-15T08:32:27.560Z,19.69
2017-10-15T08:34:55.271Z,19.80
2017-10-15T08:37:22.897Z,19.89
2017-10-15T08:39:50.533Z,20.06
2017-10-15T08:42:18.212Z,20.24
2017-10-15T08:44:45.972Z,20.35
2017-10-15T08:47:13.591Z,20.45
2017-10-15T08:49:41.308Z,20.58
2017-10-15T08:52:08.975Z,20.72
2017-10-15T08:54:36.593Z,20.86
2017-10-15T08:57:04.375Z,20.90
2017-10-15T08:59:32.041Z,20.95
2017-10-15T09:01:59.677Z,21.03
2017-10-15T09:04:27.360Z,21.18
2017-10-15T09:06:55.045Z,21.43
2017-10-15T09:09:22.692Z,21.81
2017-10-15T09:11:50.356Z,22.09
2017-10-15T09:14:17.988Z,22.30
2017-10-15T09:16:45.615Z,22.21
2017-10-15T09:19:13.349Z,22.22
2017-10-15T09:21:41.019Z,22.24
2017-10-15T09:24:08.627Z,22.30
2017-10-15T09:26:36.287Z,22.24
2017-10-15T09:29:03.904Z,22.02
2017-10-15T09:31:31.514Z,21.95
2017-10-15T09:33:59.175Z,22.04
2017-10-15T09:36:26.839Z,22.09
2017-10-15T09:38:54.456Z,22.15
2017-10-15T09:41:22.173Z,22.09
2017-10-15T09:43:49.790Z,22.38
2017-10-15T09:46:17.394Z,22.63
2017-10-15T09:48:45.116Z,23.13
2017-10-15T09:51:12.716Z,23.34
2017-10-15T09:53:40.323Z,23.71
2017-10-15T09:56:07.967Z,23.61
2017-10-15T09:58:35.580Z,23.52
2017-10-15T10:01:03.252Z,23.49
2017-10-15T10:03:30.972Z,23.31
2017-10-15T10:05:58.630Z,23.33
2017-10-15T10:08:26.291Z,23.27
2017-10-15T10:10:53.959Z,23.27
2017-10-15T10:13:21.571Z,23.29
2017-10-15T10:15:49.183Z,23.23
2017-10-15T10:18:16.843Z,23.25
2017-10-15T10:20:44.455Z,23.22
2017-10-15T10:23:12.063Z,23.23
2017-10-15T10:25:39.779Z,23.31
2017-10-15T10:28:07.395Z,23.44
2017-10-15T10:30:35.003Z,23.46
2017-10-15T10:33:02.691Z,23.41
2017-10-15T10:35:30.307Z,23.55
2017-10-15T10:37:57.964Z,23.73
2017-10-15T10:40:25.628Z,24.17
2017-10-15T10:42:53.304Z,24.89
2017-10-15T10:45:20.919Z,25.57
2017-10-15T10:47:48.567Z,26.04
2017-10-15T10:50:16.237Z,26.64
2017-10-15T10:52:43.835Z,26.93
2017-10-15T10:55:11.482Z,27.45
2017-10-15T10:57:39.091Z,27.36
2017-10-15T11:00:06.706Z,26.49
2017-10-15T11:02:34.356Z,25.86
2017-10-15T11:05:01.988Z,25.69
2017-10-15T11:07:29.608Z,25.64
2017-10-15T11:09:57.275Z,25.70
2017-10-15T11:12:24.952Z,25.76
2017-10-15T11:14:52.556Z,25.72
2017-10-15T11:17:20.210Z,25.49
2017-10-15T11:19:47.831Z,25.46
2017-10-15T11:22:15.510Z,25.63
2017-10-15T11:24:43.228Z,25.85
2017-10-15T11:27:10.831Z,26.43
2017-10-15T11:29:38.435Z,26.93
2017-10-15T11:32:06.164Z,28.03
2017-10-15T11:34:33.771Z,28.98
2017-10-15T11:37:01.396Z,29.91
2017-10-15T11:39:29.112Z,30.74
2017-10-15T11:41:56.791Z,31.69
2017-10-15T11:44:24.454Z,32.32
2017-10-15T11:46:52.108Z,32.64
2017-10-15T11:49:19.784Z,33.19
2017-10-15T11:51:47.415Z,32.27
2017-10-15T11:54:15.088Z,32.03
2017-10-15T11:56:42.691Z,32.25
2017-10-15T11:59:10.356Z,31.52
2017-10-15T12:01:38.020Z,30.48
2017-10-15T12:04:05.623Z,29.19
2017-10-15T12:06:33.227Z,28.48
2017-10-15T12:09:00.943Z,27.80
2017-10-15T12:11:28.555Z,26.99
2017-10-15T12:13:56.294Z,26.73
2017-10-15T12:16:23.954Z,26.37
2017-10-15T12:18:51.671Z,25.89
2017-10-15T12:21:19.339Z,25.92
2017-10-15T12:23:46.995Z,26.07
2017-10-15T12:26:14.615Z,25.94
2017-10-15T12:28:42.293Z,25.94
2017-10-15T12:31:10.018Z,25.81
2017-10-15T12:33:37.694Z,25.84
2017-10-15T12:36:05.351Z,25.76
2017-10-15T12:38:33.035Z,25.73
2017-10-15T12:41:00.643Z,25.67
2017-10-15T12:43:28.307Z,25.76
2017-10-15T12:45:55.959Z,25.91
2017-10-15T12:48:23.556Z,25.98
2017-10-15T12:50:51.163Z,25.97
2017-10-15T12:53:18.906Z,25.63
2017-10-15T12:55:46.567Z,25.55
2017-10-15T12:58:14.219Z,25.41
2017-10-15T13:00:41.884Z,25.17
2017-10-15T13:03:09.551Z,25.01
2017-10-15T13:05:37.151Z,24.88
2017-10-15T13:08:04.855Z,24.76
2017-10-15T13:10:32.467Z,24.61
2017-10-15T13:13:00.090Z,24.57
2017-10-15T13:15:27.840Z,24.47
2017-10-15T13:17:55.500Z,24.38
2017-10-15T13:20:23.220Z,24.33
2017-10-15T13:22:50.999Z,24.33
2017-10-15T13:25:18.630Z,24.27
2017-10-15T13:27:46.364Z,24.25
2017-10-15T13:30:14.042Z,24.17
2017-10-15T13:32:41.660Z,24.10
2017-10-15T13:35:09.341Z,24.02
2017-10-15T13:37:36.990Z,24.09
2017-10-15T13:40:04.643Z,24.08
2017-10-15T13:42:32.265Z,24.05
2017-10-15T13:44:59.935Z,24.01
2017-10-15T13:47:27.541Z,24.04
2017-10-15T13:49:55.212Z,23.93
2017-10-15T13:52:22.948Z,23.94
2017-10-15T13:54:50.555Z,23.99
2017-10-15T13:57:18.150Z,24.01
2017-10-15T13:59:45.872Z,23.93
2017-10-15T14:02:13.600Z,23.70
2017-10-15T14:04:41.262Z,23.63
2017-10-15T14:07:08.988Z,23.53
2017-10-15T14:09:36.651Z,23.59
2017-10-15T14:12:04.271Z,23.60
2017-10-15T14:14:32.055Z,23.50
2017-10-15T14:16:59.676Z,23.45
2017-10-15T14:19:27.356Z,23.43
2017-10-15T14:21:55.031Z,23.38
2017-10-15T14:24:22.691Z,23.33
2017-10-15T14:26:50.315Z,23.20
2017-10-15T14:29:17.973Z,23.03
2017-10-15T14:31:45.586Z,22.92
2017-10-15T14:34:13.207Z,22.79
2017-10-15T14:36:40.911Z,22.66
2017-10-15T14:39:08.585Z,22.54
2017-10-15T14:41:36.262Z,22.40
2017-10-15T14:44:03.933Z,22.28
2017-10-15T14:46:31.556Z,22.17
2017-10-15T14:48:59.183Z,22.06
2017-10-15T14:51:26.920Z,21.94
2017-10-15T14:53:54.611Z,21.81
2017-10-15T14:56:22.289Z,21.66
2017-10-15T14:58:50.015Z,21.50
2017-10-15T15:01:17.697Z,21.36
2017-10-15T15:03:45.427Z,21.22
2017-10-15T15:06:13.303Z,21.08
2017-10-15T15:08:41.039Z,20.87
2017-10-15T15:11:08.707Z,20.76
2017-10-15T15:13:36.444Z,20.63
2017-10-15T15:16:04.136Z,20.52
2017-10-15T15:18:31.808Z,20.37
2017-10-15T15:20:59.555Z,20.21
2017-10-15T15:23:27.171Z,20.04
2017-10-15T15:25:54.844Z,19.88
2017-10-15T15:28:22.519Z,19.71
2017-10-15T15:30:50.195Z,19.55
2017-10-15T15:33:18.756Z,19.41
2017-10-15T15:35:46.427Z,19.28
2017-10-15T15:38:14.103Z,19.15
2017-10-15T15:40:41.722Z,19.02
2017-10-15T15:43:09.384Z,18.87
2017-10-15T15:45:37.028Z,18.75
2017-10-15T15:48:04.642Z,18.63
2017-10-15T15:50:32.410Z,18.53
2017-10-15T15:53:00.140Z,18.43
2017-10-15T15:55:27.747Z,18.33
2017-10-15T15:57:55.416Z,18.24
2017-10-15T16:00:23.083Z,18.15
2017-10-15T16:02:50.743Z,18.07
2017-10-15T16:05:18.410Z,17.99
2017-10-15T16:07:46.026Z,17.92
2017-10-15T16:10:13.647Z,17.79
2017-10-15T16:12:41.340Z,17.69
2017-10-15T16:15:09.052Z,17.58
2017-10-15T16:17:36.687Z,17.52
2017-10-15T16:20:04.356Z,17.45
2017-10-15T16:22:31.989Z,17.36
2017-10-15T16:24:59.671Z,17.26
2017-10-15T16:27:27.387Z,17.18
2017-10-15T16:29:55.085Z,17.14
2017-10-15T16:32:22.691Z,17.10
2017-10-15T16:34:50.428Z,17.04
2017-10-15T16:37:18.051Z,16.95
2017-10-15T16:39:45.664Z,16.91
2017-10-15T16:42:13.392Z,16.86
2017-10-15T16:44:41.063Z,16.80
2017-10-15T16:47:08.716Z,16.74
2017-10-15T16:49:36.435Z,16.65
2017-10-15T16:52:04.059Z,16.56
2017-10-15T16:54:31.731Z,16.54
2017-10-15T16:56:59.399Z,16.52
2017-10-15T16:59:27.011Z,16.50
2017-10-15T17:01:54.735Z,16.49
2017-10-15T17:04:22.407Z,16.45
2017-10-15T17:06:50.103Z,16.39
2017-10-15T17:09:18.399Z,16.31
2017-10-15T17:11:46.071Z,16.34
2017-10-15T17:14:13.702Z,16.29
2017-10-15T17:16:41.375Z,16.26
2017-10-15T17:19:09.106Z,16.21
2017-10-15T17:21:36.835Z,16.17
2017-10-15T17:24:04.456Z,16.13
2017-10-15T17:26:32.170Z,16.09
2017-10-15T17:28:59.791Z,16.03
2017-10-15T17:31:27.504Z,16.00
2017-10-15T17:33:55.271Z,15.96
2017-10-15T17:36:22.944Z,15.94
2017-10-15T17:38:50.699Z,15.86
2017-10-15T17:41:18.415Z,15.82
2017-10-15T17:43:46.068Z,15.79
2017-10-15T17:46:13.687Z,15.78
2017-10-15T17:48:41.375Z,15.76
2017-10-15T17:51:09.067Z,15.72
2017-10-15T17:53:36.743Z,15.76
2017-10-15T17:56:04.415Z,15.78
2017-10-15T17:58:32.099Z,15.79
2017-10-15T18:00:59.867Z,15.78
2017-10-15T18:03:27.563Z,15.78
2017-10-15T18:05:55.262Z,15.78
2017-10-15T18:08:22.903Z,15.77
2017-10-15T18:10:50.623Z,15.73
2017-10-15T18:13:18.307Z,15.70
2017-10-15T18:15:45.982Z,15.67
2017-10-15T18:18:13.650Z,15.63
2017-10-15T18:20:41.306Z,15.58
2017-10-15T18:23:08.979Z,15.55
2017-10-15T18:25:36.674Z,15.51
2017-10-15T18:28:04.302Z,15.49
2017-10-15T18:30:31.984Z,15.45
2017-10-15T18:32:59.699Z,15.41
2017-10-15T18:35:27.306Z,15.40
2017-10-15T18:37:54.939Z,15.35
2017-10-15T18:40:22.654Z,15.31
2017-10-15T18:42:50.331Z,15.31
2017-10-15T18:45:17.943Z,15.30
2017-10-15T18:47:45.671Z,15.27
2017-10-15T18:50:13.317Z,15.29
2017-10-15T18:52:40.949Z,15.26
2017-10-15T18:55:08.627Z,15.28
2017-10-15T18:57:36.308Z,15.28
2017-10-15T19:00:03.987Z,15.24
2017-10-15T19:02:31.706Z,15.26
2017-10-15T19:04:59.399Z,15.40
2017-10-15T19:07:27.028Z,15.47
2017-10-15T19:09:54.755Z,15.59
2017-10-15T19:12:22.372Z,15.71
2017-10-15T19:14:49.983Z,15.81
2017-10-15T19:17:17.702Z,16.06
2017-10-15T19:19:45.376Z,16.14
2017-10-15T19:22:13.048Z,16.21
2017-10-15T19:24:40.809Z,16.29
2017-10-15T19:27:08.453Z,16.32
2017-10-15T19:29:36.156Z,16.40
2017-10-15T19:32:03.911Z,16.49
2017-10-15T19:34:31.588Z,16.54
2017-10-15T19:36:59.252Z,16.60
2017-10-15T19:39:26.919Z,16.55
2017-10-15T19:41:54.543Z,16.59
2017-10-15T19:44:22.160Z,16.55
2017-10-15T19:46:49.862Z,16.58
2017-10-15T19:49:17.475Z,16.56
2017-10-15T19:51:45.091Z,16.52
2017-10-15T19:54:12.807Z,16.51
2017-10-15T19:56:40.423Z,16.50
2017-10-15T19:59:08.039Z,16.47
2017-10-15T20:01:35.768Z,16.46
2017-10-15T20:04:03.395Z,16.45
2017-10-15T20:06:31.060Z,16.37
2017-10-15T20:08:58.727Z,16.29
2017-10-15T20:11:26.415Z,16.22
2017-10-15T20:13:54.027Z,16.08
2017-10-15T20:16:21.759Z,15.99
2017-10-15T20:18:49.403Z,15.87
2017-10-15T20:21:17.127Z,15.74
2017-10-15T20:23:44.892Z,15.54
2017-10-15T20:26:12.572Z,15.50
2017-10-15T20:28:40.239Z,15.43
2017-10-15T20:31:07.935Z,15.36
2017-10-15T20:33:35.563Z,15.29
2017-10-15T20:36:03.233Z,15.16
2017-10-15T20:38:30.899Z,15.16
2017-10-15T20:40:58.511Z,15.11
2017-10-15T20:43:26.126Z,15.04
2017-10-15T20:45:53.859Z,14.98
2017-10-15T20:48:21.479Z,14.96
2017-10-15T20:50:49.155Z,14.88
2017-10-15T20:53:16.876Z,14.85
2017-10-15T20:55:44.547Z,14.82
2017-10-15T20:58:12.163Z,14.79
2017-10-15T21:00:39.888Z,14.74
2017-10-15T21:03:07.508Z,14.69
2017-10-15T21:05:35.240Z,14.66
2017-10-15T21:08:02.899Z,14.63
2017-10-15T21:10:30.519Z,14.60
2017-10-15T21:12:58.196Z,14.56
2017-10-15T21:15:25.859Z,14.49
2017-10-15T21:17:53.465Z,14.47
2017-10-15T21:20:21.091Z,14.41
2017-10-15T21:22:48.807Z,14.36
2017-10-15T21:25:16.491Z,14.31
2017-10-15T21:27:44.169Z,14.27
2017-10-15T21:30:11.901Z,14.23
2017-10-15T21:32:39.515Z,14.20
2017-10-15T21:35:07.152Z,14.14
2017-10-15T21:37:34.827Z,14.08
2017-10-15T21:40:02.536Z,14.03
2017-10-15T21:42:30.207Z,13.94
2017-10-15T21:44:57.939Z,13.94
2017-10-15T21:47:25.563Z,14.01
2017-10-15T21:49:53.245Z,14.00
2017-10-15T21:52:20.918Z,13.98
2017-10-15T21:54:48.592Z,13.94
2017-10-15T21:57:16.218Z,13.85
2017-10-15T21:59:43.948Z,13.88
2017-10-15T22:02:11.564Z,13.89
2017-10-15T22:04:39.245Z,13.87
2017-10-15T22:07:07.031Z,13.84
2017-10-15T22:09:34.671Z,13.81
2017-10-15T22:12:02.294Z,13.76
2017-10-15T22:14:30.017Z,13.73
2017-10-15T22:16:57.700Z,13.70
2017-10-15T22:19:25.316Z,13.68
2017-10-15T22:21:58.400Z,13.67
2017-10-15T22:24:26.090Z,13.65
2017-10-15T22:26:53.707Z,13.63
2017-10-15T22:29:21.377Z,13.55
2017-10-15T22:31:49.060Z,13.52
2017-10-15T22:34:16.671Z,13.47
2017-10-15T22:36:44.411Z,13.46
2017-10-15T22:39:12.030Z,13.44
2017-10-15T22:41:39.655Z,13.43
2017-10-15T22:44:07.383Z,13.40
2017-10-15T22:46:34.999Z,13.35
2017-10-15T22:49:02.631Z,13.34
2017-10-15T22:51:30.344Z,13.31
2017-10-15T22:53:57.950Z,13.26
2017-10-15T22:56:25.571Z,13.24
2017-10-15T22:58:53.327Z,13.20
2017-10-15T23:01:20.999Z,13.16
2017-10-15T23:03:48.676Z,13.14
2017-10-15T23:06:16.341Z,13.12
2017-10-15T23:08:43.963Z,13.11
2017-10-15T23:11:11.581Z,13.06
2017-10-15T23:13:39.255Z,12.99
2017-10-15T23:16:06.871Z,12.96
2017-10-15T23:18:34.543Z,12.91
2017-10-15T23:21:02.211Z,12.84
2017-10-15T23:23:29.820Z,12.78
2017-10-15T23:25:57.498Z,12.77
2017-10-15T23:28:25.155Z,12.77
2017-10-15T23:30:52.768Z,12.76
2017-10-15T23:33:20.383Z,12.70
2017-10-15T23:35:48.108Z,12.67
2017-10-15T23:38:15.718Z,12.62
2017-10-15T23:40:43.327Z,12.58
2017-10-15T23:43:11.003Z,12.58
2017-10-15T23:45:38.697Z,12.58
2017-10-15T23:48:06.327Z,12.58
2017-10-15T23:50:34.019Z,12.57
2017-10-15T23:53:01.640Z,12.55
2017-10-15T23:55:29.270Z,12.52
2017-10-15T23:57:56.940Z,12.45
